Time;durP1;ratioP1;P1;durP2;ratioP2;P2;SDS_P1;SDS_P2;PMS_P1;PMS_P2;Temp;Humidity;BMP_temperature;BMP_pressure;BME280_temperature;BME280_humidity;BME280_pressure;Samples;Min_cycle;Max_cycle;Signal;HPM_P1;HPM_P2
2022/05/23 00:00:12;;;;;;;;;;;14.10;76.40;;;;;;5089804;28;19947;-57
2022/05/23 00:02:38;;;;;;;;;;;14.10;76.60;;;;;;5087055;28;19945;-57
2022/05/23 00:05:04;;;;;;;;;;;14.10;76.10;;;;;;5088632;28;20481;-57
2022/05/23 00:07:32;;;;;;;;;;;14.10;76.00;;;;;;5089879;28;19934;-57
2022/05/23 00:09:58;;;;;;;;;;;14.10;76.20;;;;;;5088204;28;19919;-57
2022/05/23 00:12:24;;;;;;;;;;;14.10;76.10;;;;;;5089300;28;19908;-56
2022/05/23 00:14:50;;;;;;;;;;;14.10;76.10;;;;;;5088411;28;20308;-57
2022/05/23 00:17:16;;;;;;;;;;;14.10;75.70;;;;;;5090626;28;19953;-57
2022/05/23 00:19:41;;;;;;;;;;;14.00;75.80;;;;;;5086779;28;19908;-56
2022/05/23 00:22:07;;;;;;;;;;;14.10;76.00;;;;;;5087453;28;19958;-57
2022/05/23 00:24:33;;;;;;;;;;;14.00;75.90;;;;;;5088436;28;20268;-57
2022/05/23 00:26:58;;;;;;;;;;;14.00;75.90;;;;;;5087707;28;20011;-57
2022/05/23 00:29:24;;;;;;;;;;;14.00;75.80;;;;;;5088248;28;19908;-57
2022/05/23 00:37:18;;;;;;;;;;;14.00;75.40;;;;;;5090326;28;20433;-57
2022/05/23 00:39:43;;;;;;;;;;;14.00;75.40;;;;;;5089662;28;19911;-57
2022/05/23 00:44:56;;;;;;;;;;;14.10;75.30;;;;;;5087157;28;20374;-56
2022/05/23 00:47:23;;;;;;;;;;;14.00;74.90;;;;;;5086189;28;19908;-57
2022/05/23 00:49:49;;;;;;;;;;;14.00;75.10;;;;;;5089095;28;19951;-56
2022/05/23 00:52:21;;;;;;;;;;;14.00;75.10;;;;;;5089013;28;19954;-57
2022/05/23 00:54:49;;;;;;;;;;;14.00;74.70;;;;;;5090375;28;19960;-57
2022/05/23 00:57:22;;;;;;;;;;;14.00;74.70;;;;;;5089898;28;19912;-57
2022/05/23 00:59:48;;;;;;;;;;;14.00;74.90;;;;;;5088502;28;20002;-56
2022/05/23 01:02:15;;;;;;;;;;;14.00;74.90;;;;;;5088657;28;20018;-57
2022/05/23 01:04:40;;;;;;;;;;;14.10;75.10;;;;;;5087251;28;19908;-57
2022/05/23 01:07:06;;;;;;;;;;;14.10;74.90;;;;;;5088131;28;19908;-56
2022/05/23 01:09:32;;;;;;;;;;;14.10;74.80;;;;;;5089703;28;19915;-57
2022/05/23 01:11:59;;;;;;;;;;;14.10;74.60;;;;;;5088117;28;19919;-57
2022/05/23 01:14:24;;;;;;;;;;;14.10;74.60;;;;;;5088984;28;19908;-56
2022/05/23 01:16:50;;;;;;;;;;;14.10;74.50;;;;;;5088917;28;20439;-57
2022/05/23 01:19:16;;;;;;;;;;;14.10;74.60;;;;;;5088735;28;19931;-57
2022/05/23 01:21:47;;;;;;;;;;;14.10;74.40;;;;;;5085256;28;20271;-57
2022/05/23 01:24:17;;;;;;;;;;;14.10;74.20;;;;;;5087364;28;19909;-57
2022/05/23 01:26:43;;;;;;;;;;;14.10;74.40;;;;;;5089073;28;19911;-57
2022/05/23 01:29:13;;;;;;;;;;;14.10;74.30;;;;;;5087294;28;19919;-56
2022/05/23 01:31:39;;;;;;;;;;;14.10;74.40;;;;;;5089321;28;19919;-57
2022/05/23 01:34:04;;;;;;;;;;;14.10;74.30;;;;;;5089060;28;19916;-57
2022/05/23 01:36:30;;;;;;;;;;;14.10;74.20;;;;;;5088858;28;20402;-56
2022/05/23 01:38:56;;;;;;;;;;;14.10;74.20;;;;;;5087892;28;19914;-57
2022/05/23 01:41:21;;;;;;;;;;;14.10;74.40;;;;;;5088302;28;19986;-56
2022/05/23 01:43:47;;;;;;;;;;;14.10;74.50;;;;;;5090296;28;19910;-56
2022/05/23 01:46:12;;;;;;;;;;;14.10;75.00;;;;;;5087380;28;19915;-57
2022/05/23 01:48:38;;;;;;;;;;;14.10;74.40;;;;;;5090248;28;19912;-57
2022/05/23 01:51:04;;;;;;;;;;;14.10;74.30;;;;;;5087945;28;20383;-57
2022/05/23 01:53:29;;;;;;;;;;;14.10;74.60;;;;;;5087527;28;19919;-57
2022/05/23 01:55:55;;;;;;;;;;;14.10;74.60;;;;;;5089113;28;19994;-57
2022/05/23 02:01:13;;;;;;;;;;;14.10;74.20;;;;;;5089120;28;19908;-57
2022/05/23 02:01:15;;;;;;;;;;;14.00;74.40;;;;;;5086522;28;19915;-57
2022/05/23 02:03:44;;;;;;;;;;;14.00;75.30;;;;;;5088644;28;19951;-56
2022/05/23 02:06:10;;;;;;;;;;;14.00;74.70;;;;;;5088421;28;19908;-57
2022/05/23 02:08:36;;;;;;;;;;;14.00;74.50;;;;;;5082263;28;19909;-56
2022/05/23 02:11:03;;;;;;;;;;;14.00;74.50;;;;;;5088945;28;19919;-57
2022/05/23 02:13:30;;;;;;;;;;;14.10;74.60;;;;;;5087670;28;19920;-57
2022/05/23 02:15:55;;;;;;;;;;;14.10;74.60;;;;;;5089747;28;19908;-57
2022/05/23 02:18:21;;;;;;;;;;;14.10;74.50;;;;;;5090552;28;19908;-57
2022/05/23 02:20:46;;;;;;;;;;;14.10;74.60;;;;;;5092557;28;19969;-57
2022/05/23 02:23:12;;;;;;;;;;;14.10;74.50;;;;;;5092198;28;19953;-56
2022/05/23 02:25:37;;;;;;;;;;;14.10;74.50;;;;;;5094069;28;19916;-57
2022/05/23 02:28:03;;;;;;;;;;;14.10;74.70;;;;;;5073892;28;19965;-57
2022/05/23 02:30:28;;;;;;;;;;;14.10;74.60;;;;;;5088676;28;19920;-57
2022/05/23 02:32:54;;;;;;;;;;;14.10;74.40;;;;;;5094284;28;19958;-56
2022/05/23 02:35:20;;;;;;;;;;;14.20;74.40;;;;;;5092424;28;20019;-57
2022/05/23 02:37:45;;;;;;;;;;;14.20;74.40;;;;;;5092813;28;19915;-57
2022/05/23 02:40:11;;;;;;;;;;;14.20;74.40;;;;;;5092655;28;19934;-57
2022/05/23 02:42:36;;;;;;;;;;;14.20;74.30;;;;;;5093213;28;19947;-57
2022/05/23 02:45:08;;;;;;;;;;;14.30;74.40;;;;;;5092763;28;20423;-57
2022/05/23 02:47:34;;;;;;;;;;;14.30;74.20;;;;;;5092216;28;19916;-56
2022/05/23 02:49:59;;;;;;;;;;;14.30;74.30;;;;;;5089007;28;19916;-57
2022/05/23 02:52:25;;;;;;;;;;;14.20;74.40;;;;;;5091619;28;19949;-57
2022/05/23 02:54:51;;;;;;;;;;;14.20;74.30;;;;;;5092820;28;19908;-57
2022/05/23 02:57:16;;;;;;;;;;;14.20;74.40;;;;;;5094094;28;19915;-57
2022/05/23 02:59:42;;;;;;;;;;;14.20;74.30;;;;;;5093003;28;20359;-57
2022/05/23 03:04:51;;;;;;;;;;;14.20;74.40;;;;;;5089587;28;19973;-57
2022/05/23 03:07:17;;;;;;;;;;;14.20;74.60;;;;;;5094074;28;20310;-56
2022/05/23 03:09:45;;;;;;;;;;;14.20;74.60;;;;;;5093731;28;19908;-57
2022/05/23 03:12:11;;;;;;;;;;;14.30;74.60;;;;;;5091933;28;19935;-57
2022/05/23 03:14:37;;;;;;;;;;;14.30;74.80;;;;;;5088715;28;19908;-57
2022/05/23 03:17:03;;;;;;;;;;;14.30;74.70;;;;;;5093615;28;20313;-56
2022/05/23 03:19:29;;;;;;;;;;;14.30;74.60;;;;;;5091574;28;19935;-57
2022/05/23 03:27:24;;;;;;;;;;;14.30;74.30;;;;;;5091585;28;19970;-57
2022/05/23 03:29:51;;;;;;;;;;;14.30;74.40;;;;;;5074344;28;19954;-57
2022/05/23 03:32:16;;;;;;;;;;;14.30;74.60;;;;;;5091151;28;20252;-57
2022/05/23 03:34:42;;;;;;;;;;;14.30;74.60;;;;;;5091437;28;19915;-57
2022/05/23 03:37:08;;;;;;;;;;;14.30;74.70;;;;;;5092448;28;19911;-57
2022/05/23 03:39:33;;;;;;;;;;;14.30;74.70;;;;;;5091146;28;19908;-57
2022/05/23 03:41:59;;;;;;;;;;;14.30;74.50;;;;;;5093303;28;19965;-57
2022/05/23 03:44:25;;;;;;;;;;;14.30;74.40;;;;;;5090507;28;19953;-57
2022/05/23 03:46:51;;;;;;;;;;;14.30;74.50;;;;;;5091931;28;20298;-57
2022/05/23 03:49:16;;;;;;;;;;;14.30;74.50;;;;;;5092970;28;19908;-57
2022/05/23 03:51:42;;;;;;;;;;;14.30;74.50;;;;;;5092245;28;19977;-57
2022/05/23 03:54:07;;;;;;;;;;;14.30;74.60;;;;;;5091423;28;20003;-57
2022/05/23 03:56:33;;;;;;;;;;;14.30;74.80;;;;;;5092967;28;19908;-57
2022/05/23 03:58:58;;;;;;;;;;;14.20;74.50;;;;;;5089114;28;19908;-56
2022/05/23 04:01:26;;;;;;;;;;;14.20;74.60;;;;;;5091597;28;19995;-57
2022/05/23 04:03:51;;;;;;;;;;;14.30;74.70;;;;;;5089224;28;19908;-57
2022/05/23 04:06:17;;;;;;;;;;;14.30;74.80;;;;;;5091396;28;19908;-57
2022/05/23 04:08:42;;;;;;;;;;;14.30;74.80;;;;;;5091731;28;19961;-57
2022/05/23 04:11:08;;;;;;;;;;;14.40;74.80;;;;;;5091569;28;20064;-57
2022/05/23 04:13:34;;;;;;;;;;;14.40;74.70;;;;;;5090276;28;20284;-56
2022/05/23 04:15:59;;;;;;;;;;;14.40;74.50;;;;;;5091277;28;20279;-57
2022/05/23 04:18:25;;;;;;;;;;;14.40;74.40;;;;;;5089764;28;19907;-57
2022/05/23 04:20:51;;;;;;;;;;;14.40;74.40;;;;;;5090907;28;20009;-56
2022/05/23 04:23:16;;;;;;;;;;;14.40;74.40;;;;;;5092620;28;19912;-57
2022/05/23 04:25:44;;;;;;;;;;;14.50;74.30;;;;;;5091280;28;19911;-57
2022/05/23 04:28:09;;;;;;;;;;;14.50;74.30;;;;;;5087554;28;19908;-57
2022/05/23 04:30:35;;;;;;;;;;;14.50;74.30;;;;;;5090557;28;20390;-57
2022/05/23 04:35:45;;;;;;;;;;;14.50;74.30;;;;;;5088249;28;19934;-57
2022/05/23 04:38:11;;;;;;;;;;;14.60;74.20;;;;;;5090774;28;19908;-57
2022/05/23 04:40:37;;;;;;;;;;;14.60;74.20;;;;;;5080979;28;19915;-57
2022/05/23 04:43:03;;;;;;;;;;;14.60;74.20;;;;;;5089627;28;20341;-57
2022/05/23 04:45:29;;;;;;;;;;;14.60;74.00;;;;;;5088340;28;20379;-56
2022/05/23 04:50:39;;;;;;;;;;;14.70;73.80;;;;;;5087586;28;19953;-57
2022/05/23 04:53:05;;;;;;;;;;;14.70;73.70;;;;;;5089098;28;19908;-57
2022/05/23 04:55:33;;;;;;;;;;;14.70;73.70;;;;;;5088725;28;19908;-56
2022/05/23 04:57:59;;;;;;;;;;;14.70;73.70;;;;;;5095120;28;19918;-57
2022/05/23 05:00:25;;;;;;;;;;;14.70;73.90;;;;;;5089989;28;19916;-56
2022/05/23 05:02:51;;;;;;;;;;;14.70;74.00;;;;;;5086113;28;19915;-56
2022/05/23 05:05:18;;;;;;;;;;;14.80;73.90;;;;;;5090727;28;20276;-56
2022/05/23 05:07:44;;;;;;;;;;;14.80;73.90;;;;;;5084847;28;19908;-57
2022/05/23 05:10:09;;;;;;;;;;;14.80;73.70;;;;;;5083093;28;19941;-57
2022/05/23 05:12:35;;;;;;;;;;;14.80;73.40;;;;;;5084071;28;19915;-57
2022/05/23 05:15:00;;;;;;;;;;;14.90;73.40;;;;;;5087400;28;19942;-55
2022/05/23 05:17:27;;;;;;;;;;;14.90;73.50;;;;;;5085771;28;19934;-56
2022/05/23 05:19:53;;;;;;;;;;;14.90;73.30;;;;;;5083255;28;19926;-56
2022/05/23 05:22:19;;;;;;;;;;;15.00;73.30;;;;;;5088888;28;19908;-57
2022/05/23 05:24:44;;;;;;;;;;;15.00;73.30;;;;;;5089866;28;19964;-55
2022/05/23 05:27:10;;;;;;;;;;;15.10;73.20;;;;;;5091459;28;19980;-57
2022/05/23 05:29:36;;;;;;;;;;;15.10;73.10;;;;;;5091733;28;20391;-57
2022/05/23 05:32:07;;;;;;;;;;;15.20;72.90;;;;;;5088416;28;20019;-56
2022/05/23 05:34:37;;;;;;;;;;;15.20;72.70;;;;;;5086552;28;20409;-56
2022/05/23 05:37:07;;;;;;;;;;;15.20;72.50;;;;;;5087426;28;20347;-57
2022/05/23 05:39:34;;;;;;;;;;;15.20;72.50;;;;;;5086766;28;20000;-57
2022/05/23 05:42:05;;;;;;;;;;;15.20;72.30;;;;;;5085878;28;19908;-56
2022/05/23 05:44:32;;;;;;;;;;;15.20;72.70;;;;;;5081244;28;19954;-56
2022/05/23 05:46:59;;;;;;;;;;;15.20;73.10;;;;;;5085622;28;19916;-55
2022/05/23 05:49:26;;;;;;;;;;;15.20;72.70;;;;;;5087505;28;19908;-56
2022/05/23 05:51:54;;;;;;;;;;;15.30;72.80;;;;;;5087772;28;19919;-56
2022/05/23 05:54:22;;;;;;;;;;;15.30;72.60;;;;;;5090098;28;19930;-56
2022/05/23 05:56:49;;;;;;;;;;;15.30;72.40;;;;;;5088972;28;19911;-56
2022/05/23 05:59:15;;;;;;;;;;;15.30;72.40;;;;;;5093518;28;19908;-56
2022/05/23 06:01:41;;;;;;;;;;;15.40;72.30;;;;;;5089045;28;20002;-57
2022/05/23 06:04:06;;;;;;;;;;;15.40;71.90;;;;;;5083537;28;19930;-56
2022/05/23 06:12:00;;;;;;;;;;;15.50;72.00;;;;;;5086429;28;20378;-57
2022/05/23 06:14:26;;;;;;;;;;;15.60;71.90;;;;;;5083291;28;19915;-58
2022/05/23 06:16:51;;;;;;;;;;;15.60;71.90;;;;;;5081882;28;19919;-57
2022/05/23 06:19:17;;;;;;;;;;;15.70;71.90;;;;;;5082542;28;20683;-57
2022/05/23 06:21:42;;;;;;;;;;;15.70;71.70;;;;;;5072653;28;20027;-56
2022/05/23 06:24:08;;;;;;;;;;;15.80;71.60;;;;;;5073347;28;19916;-57
2022/05/23 06:26:34;;;;;;;;;;;15.90;71.50;;;;;;5076438;28;19927;-57
2022/05/23 06:28:59;;;;;;;;;;;16.00;71.30;;;;;;5077972;28;20395;-58
2022/05/23 06:31:25;;;;;;;;;;;16.00;71.00;;;;;;5077748;28;20066;-58
2022/05/23 06:33:50;;;;;;;;;;;16.10;70.90;;;;;;5074956;28;19935;-58
2022/05/23 06:36:16;;;;;;;;;;;16.20;70.80;;;;;;5076063;28;19923;-57
2022/05/23 06:38:43;;;;;;;;;;;16.20;70.70;;;;;;5076259;28;19916;-57
2022/05/23 06:41:09;;;;;;;;;;;16.30;70.40;;;;;;5076804;28;19916;-57
2022/05/23 06:43:35;;;;;;;;;;;16.40;70.60;;;;;;5077004;28;21100;-57
2022/05/23 06:46:02;;;;;;;;;;;16.40;70.50;;;;;;5085910;28;20433;-57
2022/05/23 06:48:28;;;;;;;;;;;16.50;70.40;;;;;;5080518;28;19912;-57
2022/05/23 06:50:53;;;;;;;;;;;16.60;70.30;;;;;;5082004;28;19977;-57
2022/05/23 06:53:20;;;;;;;;;;;16.70;70.80;;;;;;5080627;28;19957;-58
2022/05/23 06:55:46;;;;;;;;;;;16.70;70.00;;;;;;5080262;28;19919;-58
2022/05/23 06:58:12;;;;;;;;;;;16.80;69.90;;;;;;5079595;28;19908;-57
2022/05/23 07:00:37;;;;;;;;;;;16.90;70.00;;;;;;5077995;28;20549;-57
2022/05/23 07:03:03;;;;;;;;;;;16.90;69.50;;;;;;5071131;28;20376;-57
2022/05/23 07:13:41;;;;;;;;;;;17.10;69.00;;;;;;5076654;28;19927;-59
2022/05/23 07:16:07;;;;;;;;;;;17.10;69.20;;;;;;5079693;28;20762;-58
2022/05/23 07:18:33;;;;;;;;;;;17.10;68.90;;;;;;5078999;28;20012;-58
2022/05/23 07:20:58;;;;;;;;;;;17.20;69.30;;;;;;5080124;28;19948;-57
2022/05/23 07:23:24;;;;;;;;;;;17.20;69.50;;;;;;5075995;28;19916;-56
2022/05/23 07:25:50;;;;;;;;;;;17.20;69.30;;;;;;5079350;28;19927;-58
2022/05/23 07:28:15;;;;;;;;;;;17.20;69.30;;;;;;5077573;28;20267;-58
2022/05/23 07:30:42;;;;;;;;;;;17.20;69.20;;;;;;5078517;28;20015;-58
2022/05/23 07:33:08;;;;;;;;;;;17.20;69.20;;;;;;5074276;28;20307;-58
2022/05/23 07:35:34;;;;;;;;;;;17.30;69.30;;;;;;5083489;28;20367;-58
2022/05/23 07:37:59;;;;;;;;;;;17.30;69.50;;;;;;5078638;28;19953;-57
2022/05/23 07:40:25;;;;;;;;;;;17.30;69.40;;;;;;5079798;28;19991;-57
2022/05/23 07:42:51;;;;;;;;;;;17.40;69.50;;;;;;5077336;28;20484;-57
2022/05/23 07:45:16;;;;;;;;;;;17.40;69.60;;;;;;5073435;28;20660;-57
2022/05/23 07:47:42;;;;;;;;;;;17.60;69.80;;;;;;5077151;28;20512;-57
2022/05/23 07:50:08;;;;;;;;;;;17.70;69.80;;;;;;5074975;28;20494;-58
2022/05/23 07:52:34;;;;;;;;;;;17.80;69.40;;;;;;5071426;28;19918;-58
2022/05/23 08:00:31;;;;;;;;;;;18.10;68.10;;;;;;5073474;28;19927;-57
2022/05/23 08:02:58;;;;;;;;;;;18.10;67.90;;;;;;5067443;28;19915;-58
2022/05/23 08:05:23;;;;;;;;;;;18.00;67.70;;;;;;5071028;28;19916;-58
2022/05/23 08:07:49;;;;;;;;;;;18.00;67.70;;;;;;5070466;28;20383;-56
2022/05/23 08:10:15;;;;;;;;;;;18.00;67.80;;;;;;5066110;28;20554;-59
2022/05/23 08:12:43;;;;;;;;;;;17.90;68.00;;;;;;5074096;28;19916;-59
2022/05/23 08:15:08;;;;;;;;;;;17.90;68.20;;;;;;5078114;28;19916;-59
2022/05/23 08:17:34;;;;;;;;;;;17.80;68.00;;;;;;5077555;28;19908;-59
2022/05/23 08:19:59;;;;;;;;;;;17.80;68.00;;;;;;5078350;28;19992;-59
2022/05/23 08:22:26;;;;;;;;;;;17.80;68.00;;;;;;5077123;28;19916;-59
2022/05/23 08:24:51;;;;;;;;;;;17.70;67.70;;;;;;5079558;28;19924;-59
2022/05/23 08:27:17;;;;;;;;;;;17.70;67.30;;;;;;5072348;28;20684;-58
2022/05/23 08:29:45;;;;;;;;;;;17.80;67.50;;;;;;5072787;28;19916;-58
2022/05/23 08:32:11;;;;;;;;;;;17.80;66.90;;;;;;5072378;28;19978;-57
2022/05/23 08:34:37;;;;;;;;;;;17.80;66.90;;;;;;5059777;28;20005;-58
2022/05/23 08:37:03;;;;;;;;;;;17.80;66.80;;;;;;5069442;28;19911;-59
2022/05/23 08:39:29;;;;;;;;;;;17.90;66.70;;;;;;5065736;28;19923;-59
2022/05/23 08:41:54;;;;;;;;;;;17.90;66.50;;;;;;5070987;28;19911;-59
2022/05/23 08:44:29;;;;;;;;;;;17.90;66.50;;;;;;5073422;28;19916;-59
2022/05/23 08:46:59;;;;;;;;;;;18.00;67.20;;;;;;5071380;28;20038;-58
2022/05/23 08:49:35;;;;;;;;;;;18.00;66.40;;;;;;5073762;28;19916;-58
2022/05/23 08:52:07;;;;;;;;;;;18.00;66.50;;;;;;5068126;28;19919;-59
2022/05/23 08:54:42;;;;;;;;;;;18.10;66.30;;;;;;5068736;28;19915;-59
2022/05/23 08:57:15;;;;;;;;;;;18.10;66.10;;;;;;5057732;28;19978;-58
2022/05/23 08:59:43;;;;;;;;;;;18.20;66.00;;;;;;5052422;28;19916;-58
2022/05/23 09:02:16;;;;;;;;;;;18.30;65.80;;;;;;5053452;28;19947;-59
2022/05/23 09:04:53;;;;;;;;;;;18.30;65.40;;;;;;5063928;28;19916;-58
2022/05/23 09:07:31;;;;;;;;;;;18.40;65.10;;;;;;5064350;28;19908;-58
2022/05/23 09:09:58;;;;;;;;;;;18.40;65.10;;;;;;5075028;28;19930;-58
2022/05/23 09:12:24;;;;;;;;;;;18.50;65.10;;;;;;5069182;28;19920;-58
2022/05/23 09:14:49;;;;;;;;;;;18.60;64.90;;;;;;5068245;28;19916;-59
2022/05/23 09:17:37;;;;;;;;;;;18.60;64.90;;;;;;5060275;28;20549;-58
2022/05/23 09:20:05;;;;;;;;;;;18.70;64.60;;;;;;5068912;28;19955;-58
2022/05/23 09:22:47;;;;;;;;;;;18.70;64.60;;;;;;5071313;28;19916;-58
2022/05/23 09:25:17;;;;;;;;;;;18.80;64.20;;;;;;5067951;28;20081;-57
2022/05/23 09:27:51;;;;;;;;;;;18.80;64.20;;;;;;5069163;28;19945;-58
2022/05/23 09:30:19;;;;;;;;;;;18.80;64.10;;;;;;5070430;28;19916;-57
2022/05/23 09:32:51;;;;;;;;;;;18.80;63.70;;;;;;5041146;28;19961;-58
2022/05/23 09:35:24;;;;;;;;;;;18.80;63.90;;;;;;5067836;28;19912;-58
2022/05/23 09:38:14;;;;;;;;;;;18.80;63.50;;;;;;5069929;28;19920;-58
2022/05/23 09:40:39;;;;;;;;;;;18.80;63.50;;;;;;5073148;28;19912;-58
2022/05/23 09:49:06;;;;;;;;;;;18.90;63.00;;;;;;5071548;28;19939;-59
2022/05/23 09:51:46;;;;;;;;;;;19.00;62.80;;;;;;5066649;28;19965;-57
2022/05/23 09:54:13;;;;;;;;;;;19.00;62.30;;;;;;5072197;28;19932;-57
2022/05/23 09:56:40;;;;;;;;;;;19.00;62.10;;;;;;5063523;28;19938;-57
2022/05/23 09:59:20;;;;;;;;;;;19.00;61.90;;;;;;5069441;28;20061;-57
2022/05/23 10:01:46;;;;;;;;;;;19.00;61.80;;;;;;5068330;28;20042;-57
2022/05/23 10:04:25;;;;;;;;;;;18.90;61.80;;;;;;5067903;28;19973;-56
2022/05/23 10:06:51;;;;;;;;;;;18.90;61.80;;;;;;5057980;28;20387;-58
2022/05/23 10:09:24;;;;;;;;;;;18.80;61.70;;;;;;5066652;28;19954;-57
2022/05/23 10:11:56;;;;;;;;;;;18.80;61.70;;;;;;5073270;28;19926;-57
2022/05/23 10:14:23;;;;;;;;;;;18.70;61.60;;;;;;5066546;28;19989;-57
2022/05/23 10:16:50;;;;;;;;;;;18.70;61.60;;;;;;5062159;28;19943;-57
2022/05/23 10:19:24;;;;;;;;;;;18.80;61.90;;;;;;5065895;28;19923;-57
2022/05/23 10:22:03;;;;;;;;;;;18.80;61.80;;;;;;5070797;28;19912;-58
2022/05/23 10:24:30;;;;;;;;;;;18.80;62.10;;;;;;5075754;28;19908;-57
2022/05/23 10:27:16;;;;;;;;;;;19.00;61.90;;;;;;5071346;28;19959;-58
2022/05/23 10:29:43;;;;;;;;;;;19.00;62.00;;;;;;5072897;28;20372;-57
2022/05/23 10:32:11;;;;;;;;;;;19.10;60.70;;;;;;5067779;28;19920;-58
2022/05/23 10:34:42;;;;;;;;;;;19.20;60.60;;;;;;5077326;28;19973;-57
2022/05/23 10:37:12;;;;;;;;;;;19.20;60.10;;;;;;5068824;28;20056;-57
2022/05/23 10:42:35;;;;;;;;;;;19.20;60.60;;;;;;5071265;28;19920;-57
2022/05/23 10:45:13;;;;;;;;;;;19.30;60.70;;;;;;5074031;28;19998;-58
2022/05/23 10:47:38;;;;;;;;;;;19.20;60.50;;;;;;5066813;28;20308;-57
2022/05/23 10:50:08;;;;;;;;;;;19.20;60.70;;;;;;5070910;28;19916;-57
2022/05/23 10:53:00;;;;;;;;;;;19.20;60.20;;;;;;5081490;28;20075;-57
2022/05/23 10:55:32;;;;;;;;;;;19.10;60.90;;;;;;5053815;28;20356;-57
2022/05/23 10:58:05;;;;;;;;;;;19.00;60.30;;;;;;5076129;28;19916;-57
2022/05/23 11:00:49;;;;;;;;;;;19.00;60.50;;;;;;5067356;28;19916;-57
2022/05/23 11:03:15;;;;;;;;;;;18.90;60.40;;;;;;5072138;28;19916;-58
2022/05/23 11:05:44;;;;;;;;;;;18.80;60.20;;;;;;5070914;28;19919;-58
2022/05/23 11:08:10;;;;;;;;;;;18.80;60.10;;;;;;5077290;28;22113;-58
2022/05/23 11:10:51;;;;;;;;;;;18.70;60.50;;;;;;5075765;28;19965;-56
2022/05/23 11:13:17;;;;;;;;;;;18.60;60.90;;;;;;5074220;28;19908;-58
2022/05/23 11:15:49;;;;;;;;;;;18.60;60.60;;;;;;5063122;28;20377;-59
2022/05/23 11:18:23;;;;;;;;;;;18.50;60.40;;;;;;5062632;28;19912;-58
2022/05/23 11:20:51;;;;;;;;;;;18.40;60.00;;;;;;5066986;28;19916;-59
2022/05/23 11:23:39;;;;;;;;;;;18.30;59.70;;;;;;5076812;28;20002;-58
2022/05/23 11:26:24;;;;;;;;;;;18.10;59.90;;;;;;5034008;28;19924;-58
2022/05/23 11:34:28;;;;;;;;;;;17.80;60.30;;;;;;5069396;28;19923;-58
2022/05/23 11:37:08;;;;;;;;;;;17.80;60.50;;;;;;5066323;28;19920;-58
2022/05/23 11:39:45;;;;;;;;;;;17.70;61.10;;;;;;5072253;28;19989;-58
2022/05/23 11:42:27;;;;;;;;;;;17.70;61.80;;;;;;5073081;28;19927;-59
2022/05/23 11:44:53;;;;;;;;;;;17.70;61.90;;;;;;5073753;28;20001;-58
2022/05/23 11:47:21;;;;;;;;;;;17.70;61.80;;;;;;5070822;28;19908;-58
2022/05/23 11:49:59;;;;;;;;;;;17.70;61.80;;;;;;5076364;28;19916;-57
2022/05/23 11:52:41;;;;;;;;;;;17.70;61.90;;;;;;5070707;28;20329;-57
2022/05/23 11:55:08;;;;;;;;;;;17.70;62.20;;;;;;5082713;28;19965;-59
2022/05/23 11:57:35;;;;;;;;;;;17.70;62.20;;;;;;5069908;28;19919;-58
2022/05/23 12:00:06;;;;;;;;;;;17.80;62.60;;;;;;5069151;28;19916;-60
2022/05/23 12:02:36;;;;;;;;;;;17.80;62.70;;;;;;5070114;28;19916;-59
2022/05/23 12:05:02;;;;;;;;;;;17.80;62.50;;;;;;5071470;28;19923;-58
2022/05/23 12:07:31;;;;;;;;;;;17.90;62.70;;;;;;5071747;28;19915;-60
2022/05/23 12:10:15;;;;;;;;;;;18.00;62.70;;;;;;5072249;28;20003;-57
2022/05/23 12:12:47;;;;;;;;;;;18.00;62.30;;;;;;5074503;28;20299;-60
2022/05/23 12:15:33;;;;;;;;;;;18.10;62.30;;;;;;5079390;28;19955;-60
2022/05/23 12:18:01;;;;;;;;;;;18.20;62.20;;;;;;5041513;28;20403;-59
2022/05/23 12:20:28;;;;;;;;;;;18.30;62.60;;;;;;5073537;28;19935;-60
2022/05/23 12:23:11;;;;;;;;;;;18.30;61.20;;;;;;5071851;28;20360;-57
2022/05/23 12:25:36;;;;;;;;;;;18.30;61.30;;;;;;5073940;28;19924;-57
2022/05/23 12:28:02;;;;;;;;;;;18.20;61.40;;;;;;5080399;28;19916;-57
2022/05/23 12:30:27;;;;;;;;;;;18.20;62.00;;;;;;5071674;28;19935;-57
2022/05/23 12:33:04;;;;;;;;;;;18.10;61.50;;;;;;5068366;28;19989;-58
2022/05/23 12:35:44;;;;;;;;;;;18.00;61.50;;;;;;5072315;28;20375;-58
2022/05/23 12:38:16;;;;;;;;;;;17.90;61.80;;;;;;5078730;28;19923;-58
2022/05/23 12:40:47;;;;;;;;;;;17.80;62.10;;;;;;5081102;28;19912;-58
2022/05/23 12:43:32;;;;;;;;;;;17.70;61.90;;;;;;5078822;28;20387;-58
2022/05/23 12:45:58;;;;;;;;;;;17.60;62.10;;;;;;5073439;28;19912;-58
2022/05/23 12:49:02;;;;;;;;;;;17.50;61.90;;;;;;5070331;28;19912;-58
2022/05/23 12:51:32;;;;;;;;;;;17.50;62.10;;;;;;4997065;28;20624;-59
2022/05/23 12:54:17;;;;;;;;;;;17.40;62.20;;;;;;4998183;28;19918;-59
2022/05/23 12:56:43;;;;;;;;;;;17.40;62.30;;;;;;5044253;28;19941;-59
2022/05/23 12:59:15;;;;;;;;;;;17.40;62.10;;;;;;5070563;28;20619;-60
2022/05/23 13:01:43;;;;;;;;;;;17.40;62.30;;;;;;5073120;28;20019;-58
2022/05/23 13:04:15;;;;;;;;;;;17.30;62.20;;;;;;5063815;28;19912;-59
2022/05/23 13:07:00;;;;;;;;;;;17.30;62.20;;;;;;5075901;28;19915;-59
2022/05/23 13:09:37;;;;;;;;;;;17.30;62.20;;;;;;5075607;28;20387;-58
2022/05/23 13:12:06;;;;;;;;;;;17.30;62.00;;;;;;5074041;28;20466;-58
2022/05/23 13:14:49;;;;;;;;;;;17.30;62.00;;;;;;5069846;28;19919;-59
2022/05/23 13:17:26;;;;;;;;;;;17.30;61.90;;;;;;5074380;28;19912;-58
2022/05/23 13:22:37;;;;;;;;;;;17.40;61.90;;;;;;5071705;28;19926;-59
2022/05/23 13:25:02;;;;;;;;;;;17.40;62.00;;;;;;5070186;28;19927;-60
2022/05/23 13:27:31;;;;;;;;;;;17.40;61.80;;;;;;5075928;28;20292;-60
2022/05/23 13:29:59;;;;;;;;;;;17.40;61.70;;;;;;5068083;28;20403;-60
2022/05/23 13:32:26;;;;;;;;;;;17.50;61.60;;;;;;5055730;28;19916;-60
2022/05/23 13:34:52;;;;;;;;;;;17.50;61.00;;;;;;5067707;28;19916;-59
2022/05/23 13:37:27;;;;;;;;;;;17.50;61.00;;;;;;5053201;28;19916;-60
2022/05/23 13:39:52;;;;;;;;;;;17.50;60.80;;;;;;5060063;28;21072;-60
2022/05/23 13:42:20;;;;;;;;;;;17.60;60.50;;;;;;5066576;28;19916;-60
2022/05/23 13:44:45;;;;;;;;;;;17.60;60.80;;;;;;5071934;28;19923;-60
2022/05/23 13:47:13;;;;;;;;;;;17.60;60.60;;;;;;5070982;28;21320;-58
2022/05/23 13:49:41;;;;;;;;;;;17.60;60.60;;;;;;5069702;28;19916;-58
2022/05/23 13:52:10;;;;;;;;;;;17.60;60.40;;;;;;5069114;28;19931;-59
2022/05/23 13:54:47;;;;;;;;;;;17.60;60.60;;;;;;5070352;28;19923;-57
2022/05/23 13:57:13;;;;;;;;;;;17.60;60.40;;;;;;5072587;28;19916;-58
2022/05/23 13:59:44;;;;;;;;;;;17.70;60.40;;;;;;5069827;28;19997;-58
2022/05/23 14:02:12;;;;;;;;;;;17.70;60.40;;;;;;5068288;28;19922;-57
2022/05/23 14:04:39;;;;;;;;;;;17.70;60.20;;;;;;5074092;28;20783;-58
2022/05/23 14:07:08;;;;;;;;;;;17.80;60.20;;;;;;5077981;28;19915;-57
2022/05/23 14:09:34;;;;;;;;;;;17.80;59.90;;;;;;5072261;28;19912;-57
2022/05/23 14:12:05;;;;;;;;;;;17.90;60.00;;;;;;5078307;28;19916;-56
2022/05/23 14:14:39;;;;;;;;;;;17.90;60.00;;;;;;5075960;28;19972;-55
2022/05/23 14:17:10;;;;;;;;;;;17.90;59.70;;;;;;5078536;28;19912;-58
2022/05/23 14:19:43;;;;;;;;;;;18.00;59.50;;;;;;5074279;28;19908;-57
2022/05/23 14:22:12;;;;;;;;;;;18.00;59.40;;;;;;5078383;28;19908;-57
2022/05/23 14:24:43;;;;;;;;;;;18.00;59.30;;;;;;5073624;28;19923;-58
2022/05/23 14:27:14;;;;;;;;;;;18.00;59.00;;;;;;5073307;28;19916;-57
2022/05/23 14:29:42;;;;;;;;;;;18.00;58.80;;;;;;5074393;28;20011;-57
2022/05/23 14:32:12;;;;;;;;;;;18.00;58.70;;;;;;5077235;28;20178;-57
2022/05/23 14:34:38;;;;;;;;;;;18.00;58.80;;;;;;5076194;28;19969;-57
2022/05/23 14:37:07;;;;;;;;;;;18.00;58.60;;;;;;5078215;28;20435;-56
2022/05/23 14:39:34;;;;;;;;;;;18.00;58.70;;;;;;5081923;28;20574;-54
2022/05/23 14:42:18;;;;;;;;;;;17.90;58.50;;;;;;5079519;28;19912;-56
2022/05/23 14:44:43;;;;;;;;;;;17.90;58.40;;;;;;5078305;28;19912;-57
2022/05/23 14:47:15;;;;;;;;;;;18.00;58.70;;;;;;5076282;28;20378;-57
2022/05/23 14:49:59;;;;;;;;;;;18.00;58.60;;;;;;5078101;28;19982;-59
2022/05/23 14:52:33;;;;;;;;;;;18.00;58.60;;;;;;5078708;28;19916;-58
2022/05/23 14:55:18;;;;;;;;;;;18.00;58.60;;;;;;5073832;28;19962;-58
2022/05/23 15:00:44;;;;;;;;;;;18.00;58.40;;;;;;5074038;28;19915;-58
2022/05/23 15:03:12;;;;;;;;;;;18.10;58.40;;;;;;5072025;28;19916;-58
2022/05/23 15:05:39;;;;;;;;;;;18.00;58.60;;;;;;5080001;28;19940;-58
2022/05/23 15:08:05;;;;;;;;;;;18.10;58.70;;;;;;5078034;28;20554;-58
2022/05/23 15:10:31;;;;;;;;;;;18.10;58.80;;;;;;5075534;28;20608;-58
2022/05/23 15:12:57;;;;;;;;;;;18.10;58.60;;;;;;5077293;28;20330;-59
2022/05/23 15:15:23;;;;;;;;;;;18.10;58.60;;;;;;5076528;28;20455;-58
2022/05/23 15:17:48;;;;;;;;;;;18.10;58.20;;;;;;5084093;28;20002;-59
2022/05/23 15:20:14;;;;;;;;;;;18.10;58.30;;;;;;5075939;28;19962;-58
2022/05/23 15:22:41;;;;;;;;;;;18.10;58.40;;;;;;5078212;28;19950;-58
2022/05/23 15:25:09;;;;;;;;;;;18.10;58.50;;;;;;5063326;28;19924;-58